Time;durP1;ratioP1;P1;durP2;ratioP2;P2;SDS_P1;SDS_P2;PMS_P1;PMS_P2;Temp;Humidity;BMP_temperature;BMP_pressure;BME280_temperature;BME280_humidity;BME280_pressure;Samples;Min_cycle;Max_cycle;Signal;HPM_P1;HPM_P2
2023/09/14 00:01:00;;;;;;;5.70;4.70;;;;;;;18.12;100.00;98473.09;5056235;28;20208;-75
2023/09/14 00:03:26;;;;;;;6.93;6.00;;;;;;;18.15;100.00;98475.28;5056242;28;20240;-75
2023/09/14 00:05:53;;;;;;;6.40;5.80;;;;;;;18.31;100.00;98474.31;5056184;28;20216;-75
2023/09/14 00:08:22;;;;;;;6.30;5.70;;;;;;;18.36;100.00;98477.88;5055745;28;20232;-75
2023/09/14 00:10:56;;;;;;;6.90;5.93;;;;;;;18.18;100.00;98472.88;5056042;28;20205;-75
2023/09/14 00:13:22;;;;;;;7.70;5.70;;;;;;;18.05;100.00;98486.75;5056062;28;20245;-75
2023/09/14 00:15:49;;;;;;;6.87;5.93;;;;;;;18.18;100.00;98475.56;5055701;28;20696;-75
2023/09/14 00:18:16;;;;;;;7.50;5.97;;;;;;;18.24;100.00;98477.22;5055611;28;20573;-75
2023/09/14 00:20:42;;;;;;;6.60;5.90;;;;;;;18.17;100.00;98476.63;5055883;28;20221;-75
2023/09/14 00:23:09;;;;;;;6.63;5.90;;;;;;;18.17;100.00;98473.94;5055808;28;20209;-75
2023/09/14 00:25:35;;;;;;;6.30;5.70;;;;;;;18.16;100.00;98474.19;5055346;28;20599;-75
2023/09/14 00:28:01;;;;;;;6.17;5.57;;;;;;;18.17;100.00;98476.63;5055715;28;20241;-75
2023/09/14 00:30:28;;;;;;;9.07;6.30;;;;;;;18.02;100.00;98473.84;5055749;28;20205;-75
2023/09/14 00:32:55;;;;;;;6.83;6.17;;;;;;;17.97;100.00;98473.75;5055717;28;20205;-75
2023/09/14 00:35:22;;;;;;;8.77;6.57;;;;;;;17.96;100.00;98469.44;5055084;28;20227;-75
2023/09/14 00:37:49;;;;;;;6.60;6.00;;;;;;;17.97;100.00;98471.06;5055497;28;20236;-75
2023/09/14 00:40:16;;;;;;;7.43;6.63;;;;;;;18.04;100.00;98478.94;5055593;28;20209;-75
2023/09/14 00:42:51;;;;;;;7.70;6.67;;;;;;;18.11;100.00;98480.38;5055946;28;20354;-75
2023/09/14 00:45:22;;;;;;;6.20;5.70;;;;;;;17.92;100.00;98473.72;5055482;28;20224;-75
2023/09/14 00:47:51;;;;;;;6.30;5.80;;;;;;;17.90;100.00;98480.41;5055579;28;20252;-75
2023/09/14 00:50:17;;;;;;;8.03;6.00;;;;;;;17.98;100.00;98480.78;5055807;28;20201;-75
2023/09/14 00:52:47;;;;;;;7.60;6.77;;;;;;;18.01;100.00;98476.78;5055591;28;20206;-75
2023/09/14 00:55:18;;;;;;;7.90;6.60;;;;;;;17.89;100.00;98476.94;5055523;28;20197;-75
2023/09/14 00:57:45;;;;;;;6.90;6.20;;;;;;;17.80;100.00;98478.47;5055155;28;20237;-75
2023/09/14 01:00:13;;;;;;;7.43;6.73;;;;;;;17.72;100.00;98480.78;5055463;28;20209;-75
2023/09/14 01:02:43;;;;;;;7.23;6.50;;;;;;;17.92;100.00;98489.88;5055372;28;20205;-75
2023/09/14 01:05:12;;;;;;;7.63;6.93;;;;;;;17.90;100.00;98481.25;5055186;28;20225;-75
2023/09/14 01:07:39;;;;;;;8.00;6.60;;;;;;;17.69;100.00;98482.09;5054846;28;20711;-75
2023/09/14 01:10:06;;;;;;;7.63;6.80;;;;;;;17.72;100.00;98483.47;5054999;28;20209;-75
2023/09/14 01:12:33;;;;;;;8.93;7.17;;;;;;;17.67;100.00;98478.06;5054688;28;20691;-75
2023/09/14 01:15:08;;;;;;;7.53;6.83;;;;;;;17.62;100.00;98484.22;5054907;28;20197;-75
2023/09/14 01:17:44;;;;;;;8.13;7.00;;;;;;;17.75;100.00;98486.50;5054448;28;20225;-75
2023/09/14 01:20:27;;;;;;;7.97;7.23;;;;;;;17.78;100.00;98487.88;5054823;28;20197;-75
2023/09/14 01:22:59;;;;;;;8.27;7.10;;;;;;;17.67;100.00;98486.94;5054444;28;20555;-75
2023/09/14 01:25:41;;;;;;;8.37;6.93;;;;;;;17.60;100.00;98488.22;5054451;28;20232;-75
2023/09/14 01:28:09;;;;;;;6.83;6.13;;;;;;;17.74;100.00;98482.16;5054320;28;20347;-75
2023/09/14 01:30:37;;;;;;;8.47;7.67;;;;;;;17.49;100.00;98483.78;5054635;28;20209;-75
2023/09/14 01:33:05;;;;;;;7.97;7.27;;;;;;;17.49;100.00;98489.97;5054249;28;20201;-75
2023/09/14 01:35:37;;;;;;;7.37;6.67;;;;;;;17.47;100.00;98488.59;5054462;28;20197;-75
2023/09/14 01:38:04;;;;;;;7.93;7.13;;;;;;;17.44;100.00;98492.59;5054447;28;20635;-75
2023/09/14 01:40:33;;;;;;;8.33;7.53;;;;;;;17.56;100.00;98490.56;5054376;28;20288;-75
2023/09/14 01:42:59;;;;;;;7.70;7.00;;;;;;;17.61;100.00;98496.03;5054327;28;20205;-75
2023/09/14 01:45:26;;;;;;;8.30;7.50;;;;;;;17.56;100.00;98495.94;5053351;28;20225;-75
2023/09/14 01:47:53;;;;;;;7.93;7.23;;;;;;;17.58;100.00;98488.47;5053838;28;20236;-75
2023/09/14 01:50:19;;;;;;;7.70;7.10;;;;;;;17.56;100.00;98493.25;5054195;28;20232;-75
2023/09/14 01:52:46;;;;;;;8.23;7.47;;;;;;;17.55;100.00;98496.22;5054176;28;20209;-75
2023/09/14 01:55:13;;;;;;;7.90;7.20;;;;;;;17.42;100.00;98488.56;5053839;28;20205;-75
2023/09/14 01:57:39;;;;;;;8.93;7.67;;;;;;;17.58;100.00;98493.84;5053757;28;20233;-75
2023/09/14 02:00:06;;;;;;;9.97;8.37;;;;;;;17.36;100.00;98495.69;5054061;28;20211;-75
2023/09/14 02:02:33;;;;;;;7.93;7.13;;;;;;;17.40;100.00;98494.16;5053868;28;20205;-75
2023/09/14 02:04:59;;;;;;;8.33;7.63;;;;;;;17.47;100.00;98497.47;5053839;28;20229;-75
2023/09/14 02:07:25;;;;;;;8.30;7.20;;;;;;;17.45;100.00;98491.53;5053619;28;20566;-75
2023/09/14 02:09:52;;;;;;;7.90;7.20;;;;;;;17.36;100.00;98498.38;5053871;28;20580;-75
2023/09/14 02:12:20;;;;;;;8.40;7.43;;;;;;;17.36;100.00;98498.38;5053733;28;20205;-75
2023/09/14 02:14:46;;;;;;;8.37;7.40;;;;;;;17.48;100.00;98495.59;5053538;28;20549;-75
2023/09/14 02:17:13;;;;;;;7.73;7.00;;;;;;;17.22;100.00;98499.84;5053455;28;20226;-75
2023/09/14 02:19:39;;;;;;;7.40;6.70;;;;;;;17.31;100.00;98501.03;5053432;28;20778;-75
2023/09/14 02:22:06;;;;;;;6.63;6.07;;;;;;;17.40;100.00;98501.41;5053752;28;20211;-75
2023/09/14 02:24:32;;;;;;;7.30;6.70;;;;;;;17.37;100.00;98497.31;5053554;28;20225;-75
2023/09/14 02:26:58;;;;;;;6.90;6.27;;;;;;;17.37;100.00;98497.31;5053577;28;20209;-75
2023/09/14 02:29:25;;;;;;;6.50;6.00;;;;;;;17.36;100.00;98498.38;5053667;28;20228;-75
2023/09/14 02:31:51;;;;;;;6.27;5.77;;;;;;;17.40;100.00;98501.41;5053581;28;20212;-75
2023/09/14 02:34:17;;;;;;;6.07;5.47;;;;;;;17.39;100.00;98497.94;5053576;28;20204;-75
2023/09/14 02:36:44;;;;;;;5.20;4.80;;;;;;;17.29;100.00;98497.75;5053539;28;20208;-75
2023/09/14 02:39:10;;;;;;;7.00;5.83;;;;;;;17.52;100.00;98496.72;5053418;28;20226;-75
2023/09/14 02:41:36;;;;;;;6.27;5.67;;;;;;;17.38;100.00;98503.53;5053480;28;20209;-75
2023/09/14 02:44:03;;;;;;;7.60;5.70;;;;;;;17.49;100.00;98498.03;5053056;28;20699;-75
2023/09/14 02:46:29;;;;;;;6.63;6.03;;;;;;;17.52;100.00;98505.59;5053468;28;20201;-75
2023/09/14 02:48:55;;;;;;;6.10;5.60;;;;;;;17.57;100.00;98504.84;5053425;28;20225;-76
2023/09/14 02:51:22;;;;;;;6.53;5.13;;;;;;;17.48;100.00;98506.34;5052999;28;20682;-75
2023/09/14 02:53:48;;;;;;;5.80;5.30;;;;;;;17.42;100.00;98500.09;5053257;28;20205;-75
2023/09/14 02:56:15;;;;;;;6.03;5.43;;;;;;;17.44;100.00;98508.75;5053365;28;20255;-75
2023/09/14 02:58:41;;;;;;;5.37;4.87;;;;;;;17.52;100.00;98504.78;5056786;28;20715;-75
2023/09/14 03:01:11;;;;;;;5.00;4.60;;;;;;;17.79;100.00;98503.75;5057076;28;20209;-75
2023/09/14 03:03:38;;;;;;;5.37;4.87;;;;;;;17.66;100.00;98501.47;5058257;28;20212;-76
2023/09/14 03:06:05;;;;;;;4.90;4.40;;;;;;;17.77;100.00;98502.34;5057230;28;20225;-75
2023/09/14 03:08:32;;;;;;;4.80;4.33;;;;;;;17.76;100.00;98508.81;5057214;28;20268;-75
2023/09/14 03:11:00;;;;;;;6.40;4.37;;;;;;;17.72;100.00;98511.19;5057219;28;20243;-75
2023/09/14 03:13:27;;;;;;;5.53;5.03;;;;;;;17.77;100.00;98513.09;5057103;28;20216;-75
2023/09/14 03:15:57;;;;;;;4.83;4.43;;;;;;;17.80;100.00;98521.50;5057128;28;20228;-75
2023/09/14 03:18:24;;;;;;;4.70;4.30;;;;;;;17.63;100.00;98526.16;5057079;28;20235;-75
2023/09/14 03:20:55;;;;;;;5.53;4.57;;;;;;;17.38;100.00;98523.13;5057079;28;20209;-75
2023/09/14 03:23:23;;;;;;;5.43;4.60;;;;;;;17.53;100.00;98523.34;5057087;28;20196;-75
2023/09/14 03:25:50;;;;;;;5.27;4.33;;;;;;;17.69;100.00;98518.97;5056745;28;20229;-75
2023/09/14 03:28:17;;;;;;;5.73;4.40;;;;;;;17.47;100.00;98518.97;5056846;28;20231;-75
2023/09/14 03:30:43;;;;;;;5.17;4.50;;;;;;;17.54;100.00;98524.97;5056779;28;20209;-75
2023/09/14 03:33:11;;;;;;;5.03;4.63;;;;;;;17.58;100.00;98519.91;5056402;28;20668;-75
2023/09/14 03:35:37;;;;;;;5.80;5.30;;;;;;;17.55;100.00;98525.81;5056264;28;20205;-75
2023/09/14 03:38:04;;;;;;;5.57;5.07;;;;;;;17.57;100.00;98529.03;5056148;28;20731;-75
2023/09/14 03:40:30;;;;;;;5.80;5.23;;;;;;;17.53;100.00;98523.34;5056577;28;20255;-75
2023/09/14 03:42:57;;;;;;;5.33;4.83;;;;;;;17.44;100.00;98524.88;5056498;28;20201;-75
2023/09/14 03:45:23;;;;;;;5.00;4.60;;;;;;;17.53;100.00;98528.75;5056423;28;20225;-75
2023/09/14 03:47:51;;;;;;;5.27;4.87;;;;;;;17.49;100.00;98529.47;5056349;28;20229;-75
2023/09/14 03:50:18;;;;;;;6.53;5.00;;;;;;;17.47;100.00;98523.56;5056009;28;20672;-75
2023/09/14 03:52:44;;;;;;;5.30;4.67;;;;;;;17.40;100.00;98515.69;5056260;28;20223;-75
2023/09/14 03:55:10;;;;;;;6.13;5.13;;;;;;;17.40;100.00;98518.38;5056157;28;20208;-75
2023/09/14 03:57:37;;;;;;;5.87;5.00;;;;;;;17.46;100.00;98514.66;5055904;28;20237;-75
2023/09/14 04:00:04;;;;;;;6.33;4.90;;;;;;;17.48;100.00;98517.94;5055985;28;20194;-75
2023/09/14 04:02:31;;;;;;;6.33;5.73;;;;;;;17.39;100.00;98516.75;5055085;28;20209;-75
2023/09/14 04:04:57;;;;;;;6.50;5.90;;;;;;;17.31;100.00;98514.47;5055255;28;20225;-75
2023/09/14 04:07:23;;;;;;;6.57;5.97;;;;;;;17.25;100.00;98523.53;5055824;28;20232;-75
2023/09/14 04:09:50;;;;;;;7.60;6.80;;;;;;;17.22;100.00;98523.19;5054968;28;20232;-75
2023/09/14 04:12:16;;;;;;;6.43;5.83;;;;;;;17.35;100.00;98520.97;5055677;28;20556;-75
2023/09/14 04:14:43;;;;;;;7.17;6.00;;;;;;;17.30;100.00;98530.81;5055868;28;20235;-75
2023/09/14 04:17:09;;;;;;;7.20;6.50;;;;;;;17.32;100.00;98526.81;5055727;28;20209;-75
2023/09/14 04:19:35;;;;;;;8.30;7.60;;;;;;;17.28;100.00;98530.28;5055669;28;20208;-75
2023/09/14 04:22:02;;;;;;;6.57;5.80;;;;;;;17.38;100.00;98533.09;5055715;28;20205;-75
2023/09/14 04:24:28;;;;;;;7.60;6.80;;;;;;;17.26;100.00;98538.59;5054989;28;20209;-75
2023/09/14 04:26:54;;;;;;;6.50;5.90;;;;;;;17.20;100.00;98539.56;5055064;28;20209;-76
2023/09/14 04:29:21;;;;;;;6.17;5.67;;;;;;;17.20;100.00;98539.56;5055204;28;20664;-76
2023/09/14 04:31:47;;;;;;;6.80;6.27;;;;;;;17.18;100.00;98541.69;5055215;28;20548;-76
2023/09/14 04:34:13;;;;;;;6.77;6.13;;;;;;;17.13;100.00;98541.63;5055007;28;20664;-76
2023/09/14 04:36:40;;;;;;;7.07;6.37;;;;;;;17.13;100.00;98540.81;5054929;28;20216;-76
2023/09/14 04:39:06;;;;;;;6.67;6.03;;;;;;;17.06;100.00;98541.00;5055205;28;20229;-76
2023/09/14 04:41:33;;;;;;;7.57;6.87;;;;;;;16.99;100.00;98540.38;5054762;28;20213;-76
2023/09/14 04:43:59;;;;;;;8.90;6.90;;;;;;;17.02;100.00;98545.25;5054506;28;20674;-76
2023/09/14 04:46:27;;;;;;;7.57;6.83;;;;;;;17.02;100.00;98545.25;5054940;28;20231;-76
2023/09/14 04:48:54;;;;;;;9.87;7.37;;;;;;;17.00;100.00;98546.53;5054826;28;20226;-76
2023/09/14 04:51:21;;;;;;;7.77;7.07;;;;;;;17.07;100.00;98550.69;5054829;28;20205;-76
2023/09/14 04:53:47;;;;;;;8.83;7.63;;;;;;;16.95;100.00;98547.28;5055021;28;20210;-76
2023/09/14 04:56:13;;;;;;;8.87;8.07;;;;;;;16.87;100.00;98555.78;5054762;28;20326;-76
2023/09/14 04:58:40;;;;;;;9.87;8.87;;;;;;;16.96;100.00;98548.91;5054265;28;20233;-75
2023/09/14 05:01:06;;;;;;;9.30;8.37;;;;;;;16.83;100.00;98546.56;5054640;28;20205;-75
2023/09/14 05:03:32;;;;;;;9.63;8.80;;;;;;;16.92;100.00;98545.09;5054765;28;20300;-75
2023/09/14 05:05:59;;;;;;;9.10;8.20;;;;;;;16.95;100.00;98547.28;5054744;28;20237;-75
2023/09/14 05:08:26;;;;;;;10.37;9.07;;;;;;;16.95;100.00;98547.28;5054213;28;20737;-76
2023/09/14 05:10:53;;;;;;;10.70;9.60;;;;;;;16.99;100.00;98552.97;5054830;28;20209;-76
2023/09/14 05:13:20;;;;;;;10.63;9.53;;;;;;;17.05;100.00;98552.00;5054163;28;20651;-76
2023/09/14 05:15:47;;;;;;;10.33;9.43;;;;;;;17.10;100.00;98554.75;5054689;28;20201;-76
2023/09/14 05:18:14;;;;;;;10.77;9.77;;;;;;;16.89;100.00;98559.03;5054410;28;20225;-76
2023/09/14 05:20:44;;;;;;;12.07;10.10;;;;;;;17.01;100.00;98558.94;5053974;28;20201;-76
2023/09/14 05:23:11;;;;;;;10.67;9.57;;;;;;;17.28;100.00;98563.31;5054091;28;20209;-76
2023/09/14 05:25:38;;;;;;;10.83;9.70;;;;;;;17.10;100.00;98562.81;5053875;28;20588;-76
2023/09/14 05:28:04;;;;;;;10.13;9.23;;;;;;;17.10;100.00;98560.94;5054233;28;20229;-75
2023/09/14 05:30:32;;;;;;;11.50;10.40;;;;;;;17.14;100.00;98566.66;5037464;28;20208;-76
2023/09/14 05:32:59;;;;;;;10.07;9.17;;;;;;;17.18;100.00;98565.88;5054300;28;20204;-76
2023/09/14 05:35:26;;;;;;;10.63;8.87;;;;;;;17.18;100.00;98573.94;5054260;28;20209;-76
2023/09/14 05:37:52;;;;;;;9.63;8.73;;;;;;;17.20;100.00;98569.13;5053746;28;20568;-76
2023/09/14 05:40:18;;;;;;;8.83;8.03;;;;;;;17.21;100.00;98567.25;5053841;28;20702;-76
2023/09/14 05:42:45;;;;;;;9.03;8.10;;;;;;;17.35;100.00;98572.03;5053728;28;20201;-76
2023/09/14 05:45:12;;;;;;;11.87;9.20;;;;;;;17.46;100.00;98568.41;5053791;28;20221;-76
2023/09/14 05:47:39;;;;;;;9.57;8.60;;;;;;;17.59;100.00;98561.84;5053670;28;20240;-76
2023/09/14 05:50:10;;;;;;;11.33;8.90;;;;;;;17.63;100.00;98565.66;5053669;28;20687;-76
2023/09/14 05:52:36;;;;;;;8.83;8.03;;;;;;;17.52;100.00;98572.81;5053442;28;20205;-75
2023/09/14 05:55:03;;;;;;;9.70;8.80;;;;;;;17.52;100.00;98575.50;5053221;28;20205;-75
2023/09/14 05:57:31;;;;;;;9.03;8.07;;;;;;;17.64;100.00;98576.16;5053694;28;20233;-76
2023/09/14 05:59:58;;;;;;;9.70;8.63;;;;;;;17.59;100.00;98575.28;5053877;28;20297;-76
2023/09/14 06:02:24;;;;;;;9.53;8.47;;;;;;;17.62;100.00;98569.41;5053834;28;20209;-75
2023/09/14 06:04:51;;;;;;;8.63;7.83;;;;;;;17.63;100.00;98574.56;5053581;28;20308;-75
2023/09/14 06:07:18;;;;;;;9.27;8.20;;;;;;;17.22;100.00;98571.56;5053543;28;20225;-76
2023/09/14 06:09:44;;;;;;;8.03;7.13;;;;;;;17.47;100.00;98578.09;5053000;28;20205;-76
2023/09/14 06:12:10;;;;;;;7.50;6.80;;;;;;;17.06;100.00;98586.66;5053443;28;20219;-76
2023/09/14 06:14:37;;;;;;;6.93;6.30;;;;;;;17.35;100.00;98590.03;5053469;28;20216;-75
2023/09/14 06:17:04;;;;;;;8.33;7.30;;;;;;;17.37;100.00;98586.00;5053456;28;20202;-75
2023/09/14 06:19:30;;;;;;;8.47;7.43;;;;;;;17.47;100.00;98591.53;5053352;28;20205;-75
2023/09/14 06:21:57;;;;;;;8.10;7.30;;;;;;;17.62;100.00;98591.75;5053286;28;20236;-76
2023/09/14 06:24:24;;;;;;;9.13;7.07;;;;;;;17.32;100.00;98588.63;5053217;28;20209;-75
2023/09/14 06:26:50;;;;;;;7.77;6.20;;;;;;;17.34;100.00;98593.78;5052750;28;20225;-75
2023/09/14 06:29:17;;;;;;;10.97;7.27;;;;;;;17.29;100.00;98593.72;5052595;28;20205;-75
2023/09/14 06:31:43;;;;;;;8.90;6.53;;;;;;;17.48;100.00;98595.88;5052567;28;20205;-76
2023/09/14 06:34:10;;;;;;;7.73;6.43;;;;;;;17.67;100.00;98596.38;5052787;28;20216;-75
2023/09/14 06:36:36;;;;;;;9.10;7.60;;;;;;;17.55;100.00;98601.88;5052746;28;20564;-75
2023/09/14 06:39:03;;;;;;;8.80;7.60;;;;;;;17.62;100.00;98601.69;5052500;28;20240;-76
2023/09/14 06:41:29;;;;;;;7.67;6.90;;;;;;;17.58;100.00;98596.00;5052701;28;20235;-76
2023/09/14 06:43:55;;;;;;;7.07;6.47;;;;;;;17.63;100.00;98601.44;5052984;28;20210;-76
2023/09/14 06:46:22;;;;;;;8.17;7.37;;;;;;;17.59;100.00;98603.00;5052441;28;20583;-76
2023/09/14 06:48:48;;;;;;;6.70;6.00;;;;;;;17.06;100.00;98608.16;5052640;28;20286;-75
2023/09/14 06:51:14;;;;;;;7.53;6.87;;;;;;;16.88;100.00;98604.94;5053062;28;20201;-76
2023/09/14 06:53:41;;;;;;;7.87;7.13;;;;;;;17.10;100.00;98598.53;5052987;28;20205;-75
2023/09/14 06:56:08;;;;;;;6.97;6.20;;;;;;;17.10;100.00;98601.22;5052956;28;20212;-75
2023/09/14 06:58:35;;;;;;;6.57;5.97;;;;;;;17.22;100.00;98599.25;5052263;28;20290;-75
2023/09/14 07:01:04;;;;;;;6.27;5.67;;;;;;;17.25;100.00;98604.16;5052680;28;20689;-75
2023/09/14 07:03:31;;;;;;;9.93;5.13;;;;;;;17.41;100.00;98597.94;5052793;28;20258;-75
2023/09/14 07:05:57;;;;;;;6.50;5.40;;;;;;;17.37;100.00;98598.66;5052419;28;20232;-75
2023/09/14 07:08:24;;;;;;;5.43;4.90;;;;;;;17.48;100.00;98590.50;5052136;28;20232;-75
2023/09/14 07:10:50;;;;;;;4.73;4.30;;;;;;;17.43;100.00;98598.50;5052871;28;20201;-75
2023/09/14 07:13:18;;;;;;;5.97;4.70;;;;;;;17.60;100.00;98606.50;5053354;28;20208;-75
2023/09/14 07:15:44;;;;;;;6.67;5.00;;;;;;;17.57;100.00;98615.91;5052613;28;20201;-75
2023/09/14 07:18:11;;;;;;;6.83;5.00;;;;;;;17.94;100.00;98611.50;5052761;28;20312;-75
2023/09/14 07:20:38;;;;;;;5.70;5.20;;;;;;;17.67;100.00;98610.63;5052873;28;20209;-76
2023/09/14 07:23:04;;;;;;;5.63;4.07;;;;;;;17.68;100.00;98609.56;5052577;28;20229;-76
2023/09/14 07:25:31;;;;;;;5.20;4.70;;;;;;;17.70;100.00;98610.16;5052259;28;20225;-75
2023/09/14 07:27:57;;;;;;;5.00;4.60;;;;;;;17.54;100.00;98610.19;5052600;28;20312;-75
2023/09/14 07:30:24;;;;;;;6.67;4.93;;;;;;;17.68;100.00;98612.25;5053465;28;20201;-75
2023/09/14 07:32:50;;;;;;;7.07;5.10;;;;;;;17.79;100.00;98615.88;5052640;28;20209;-75
2023/09/14 07:35:16;;;;;;;8.40;4.83;;;;;;;17.60;100.00;98606.50;5052300;28;20213;-75
2023/09/14 07:37:43;;;;;;;6.10;4.60;;;;;;;17.84;100.00;98618.63;5052364;28;20229;-75
2023/09/14 07:40:10;;;;;;;5.87;4.60;;;;;;;17.81;100.00;98619.94;5052337;28;20201;-75
2023/09/14 07:42:37;;;;;;;5.90;4.60;;;;;;;17.86;100.00;98620.00;5052701;28;20207;-75
2023/09/14 07:45:03;;;;;;;4.67;4.23;;;;;;;18.00;100.00;98623.13;5055266;28;20209;-75
2023/09/14 07:47:30;;;;;;;5.90;4.60;;;;;;;17.98;100.00;98628.75;5056185;28;20240;-75
2023/09/14 07:49:57;;;;;;;5.60;4.30;;;;;;;18.10;100.00;98631.31;5056437;28;20289;-75
2023/09/14 07:52:23;;;;;;;6.70;4.47;;;;;;;18.27;100.00;98626.66;5055890;28;20205;-75
2023/09/14 07:54:49;;;;;;;5.27;4.30;;;;;;;18.23;100.00;98631.72;5056118;28;20205;-75
2023/09/14 07:57:16;;;;;;;6.27;4.20;;;;;;;18.27;100.00;98634.72;5055675;28;20247;-75
2023/09/14 07:59:42;;;;;;;6.23;4.17;;;;;;;18.35;100.00;98634.28;5055981;28;20560;-75
2023/09/14 08:02:08;;;;;;;8.73;4.93;;;;;;;18.33;100.00;98642.59;5055854;28;20695;-76
2023/09/14 08:04:35;;;;;;;5.67;4.80;;;;;;;18.35;100.00;98636.97;5056172;28;20209;-75
2023/09/14 08:07:01;;;;;;;5.37;4.57;;;;;;;18.53;100.00;98637.44;5056021;28;20229;-76
2023/09/14 08:09:27;;;;;;;6.07;4.60;;;;;;;18.45;100.00;98637.88;5055935;28;20212;-76
2023/09/14 08:11:54;;;;;;;6.70;4.80;;;;;;;18.22;100.00;98642.72;5055930;28;20205;-75
2023/09/14 08:14:20;;;;;;;7.03;4.90;;;;;;;18.60;100.00;98642.63;5055743;28;20205;-75
2023/09/14 08:16:47;;;;;;;5.40;4.03;;;;;;;18.64;100.00;98644.53;5055694;28;20205;-75
2023/09/14 08:19:13;;;;;;;5.00;4.47;;;;;;;18.66;100.00;98650.47;5055996;28;20229;-76
2023/09/14 08:21:39;;;;;;;5.73;5.07;;;;;;;18.53;100.00;98639.31;5055809;28;20205;-75
2023/09/14 08:24:06;;;;;;;6.20;4.90;;;;;;;18.43;100.00;98648.13;5055746;28;20231;-76
2023/09/14 08:26:32;;;;;;;6.70;5.13;;;;;;;18.70;100.00;98648.91;5055505;28;20225;-75
2023/09/14 08:28:59;;;;;;;5.60;5.10;;;;;;;18.94;100.00;98650.19;5055585;28;20595;-75
2023/09/14 08:31:25;;;;;;;6.13;4.90;;;;;;;18.80;100.00;98657.06;5055244;28;20572;-75
2023/09/14 08:33:51;;;;;;;6.50;5.30;;;;;;;18.68;100.00;98664.50;5055421;28;20214;-75
2023/09/14 08:36:18;;;;;;;6.73;5.30;;;;;;;18.66;100.00;98658.56;5055462;28;20201;-75
2023/09/14 08:38:44;;;;;;;5.33;4.80;;;;;;;18.65;100.00;98656.94;5055465;28;20231;-76
2023/09/14 08:41:35;;;;;;;5.73;4.67;;;;;;;19.04;100.00;98658.34;5055534;28;20206;-75
2023/09/14 08:44:02;;;;;;;5.90;5.30;;;;;;;18.56;100.00;98665.72;5055253;28;20633;-75
2023/09/14 08:46:28;;;;;;;6.10;5.37;;;;;;;18.53;100.00;98658.16;5054744;28;20228;-75
2023/09/14 08:48:56;;;;;;;5.50;5.00;;;;;;;18.63;100.00;98659.06;5054875;28;20312;-76
2023/09/14 08:51:25;;;;;;;6.97;5.70;;;;;;;18.67;100.00;98660.19;5055173;28;20209;-76
2023/09/14 08:53:54;;;;;;;5.70;5.20;;;;;;;18.62;100.00;98660.13;5055261;28;20208;-76
2023/09/14 08:56:22;;;;;;;6.70;5.73;;;;;;;18.56;100.00;98663.03;5054513;28;20582;-75
2023/09/14 08:58:49;;;;;;;8.87;5.43;;;;;;;18.58;100.00;98658.19;5054789;28;20233;-75
2023/09/14 09:01:17;;;;;;;5.87;5.27;;;;;;;19.06;100.00;98663.47;5054474;28;20201;-75
2023/09/14 09:03:43;;;;;;;8.97;5.37;;;;;;;19.22;100.00;98655.25;5054621;28;20699;-75
2023/09/14 09:06:11;;;;;;;7.20;4.80;;;;;;;19.08;100.00;98656.75;5054831;28;20261;-75
2023/09/14 09:08:38;;;;;;;5.47;4.97;;;;;;;19.18;100.00;98661.41;5055154;28;20225;-75
2023/09/14 09:11:06;;;;;;;10.87;5.93;;;;;;;18.95;100.00;98656.38;5054446;28;20571;-75
2023/09/14 09:13:34;;;;;;;6.07;5.47;;;;;;;18.88;100.00;98659.28;5054907;28;20231;-75
2023/09/14 09:16:01;;;;;;;6.37;5.73;;;;;;;19.03;100.00;98655.88;5054709;28;20211;-75
2023/09/14 09:18:27;;;;;;;6.57;5.10;;;;;;;18.98;100.00;98650.47;5054053;28;20735;-75
2023/09/14 09:20:54;;;;;;;7.77;6.20;;;;;;;18.78;100.00;98656.50;5054514;28;20202;-76
2023/09/14 09:23:21;;;;;;;6.50;5.90;;;;;;;18.87;100.00;98649.56;5054368;28;20680;-76
2023/09/14 09:25:54;;;;;;;7.57;5.40;;;;;;;18.90;100.00;98643.66;5054257;28;20205;-76
2023/09/14 09:28:30;;;;;;;6.63;5.77;;;;;;;19.06;100.00;98644.59;5054399;28;20235;-76
2023/09/14 09:30:56;;;;;;;7.57;5.60;;;;;;;19.28;100.00;98642.63;5054111;28;20189;-76
2023/09/14 09:33:38;;;;;;;7.63;5.60;;;;;;;19.20;100.00;98649.28;5054425;28;20208;-76
2023/09/14 09:36:18;;;;;;;6.10;5.50;;;;;;;19.32;100.00;98644.53;5054184;28;20201;-76
2023/09/14 09:38:45;;;;;;;7.70;6.07;;;;;;;19.20;100.00;98649.28;5053893;28;20236;-75
2023/09/14 09:41:12;;;;;;;6.33;5.57;;;;;;;19.25;100.00;98645.84;5053926;28;20213;-74
2023/09/14 09:43:44;;;;;;;8.07;5.60;;;;;;;19.17;100.00;98648.97;5053711;28;20573;-74
2023/09/14 09:46:17;;;;;;;6.80;5.87;;;;;;;19.23;100.00;98651.47;5054223;28;20213;-73
2023/09/14 09:48:44;;;;;;;8.67;5.73;;;;;;;19.40;100.00;98657.53;5054036;28;20232;-73
2023/09/14 09:51:10;;;;;;;8.37;5.90;;;;;;;19.19;100.00;98653.03;5054090;28;20219;-73
2023/09/14 09:53:37;;;;;;;6.80;6.20;;;;;;;19.22;100.00;98651.72;5053557;28;20688;-73
2023/09/14 09:56:04;;;;;;;6.87;5.73;;;;;;;19.50;100.00;98657.59;5053682;28;20227;-73
2023/09/14 09:58:38;;;;;;;5.93;5.43;;;;;;;19.41;100.00;98653.75;5053313;28;20233;-73
2023/09/14 10:01:06;;;;;;;5.47;4.93;;;;;;;19.39;100.00;98649.69;5054012;28;20209;-73
2023/09/14 10:03:34;;;;;;;5.50;4.90;;;;;;;19.47;100.00;98651.91;5054229;28;20205;-73
2023/09/14 10:06:00;;;;;;;5.87;5.07;;;;;;;19.57;100.00;98646.56;5053639;28;20218;-73
2023/09/14 10:08:27;;;;;;;6.77;4.70;;;;;;;19.63;100.00;98649.03;5053206;28;20233;-73
2023/09/14 10:10:54;;;;;;;6.17;5.30;;;;;;;19.37;100.00;98659.94;5053907;28;20668;-73
2023/09/14 10:13:22;;;;;;;7.13;5.70;;;;;;;19.08;100.00;98645.97;5053783;28;20213;-73
2023/09/14 10:15:54;;;;;;;7.87;5.27;;;;;;;19.27;100.00;98649.09;5053651;28;20288;-73
2023/09/14 10:18:22;;;;;;;5.20;4.70;;;;;;;19.55;100.00;98649.50;5053888;28;20657;-73
2023/09/14 10:20:51;;;;;;;5.53;5.03;;;;;;;19.77;100.00;98649.38;5053312;28;20205;-73
2023/09/14 10:23:20;;;;;;;6.97;5.30;;;;;;;19.86;100.00;98649.66;5053491;28;20211;-73
2023/09/14 10:25:49;;;;;;;7.07;5.90;;;;;;;19.60;100.00;98648.75;5053667;28;20209;-73
2023/09/14 10:28:17;;;;;;;6.30;5.70;;;;;;;19.78;100.00;98649.09;5053331;28;20229;-73
2023/09/14 10:30:47;;;;;;;5.37;4.93;;;;;;;19.94;100.00;98646.47;5053478;28;20292;-73
2023/09/14 10:33:15;;;;;;;6.57;4.80;;;;;;;19.96;100.00;98650.53;5053379;28;20208;-73
2023/09/14 10:35:43;;;;;;;5.83;5.20;;;;;;;20.35;100.00;98651.72;5053424;28;20206;-73
2023/09/14 10:38:11;;;;;;;5.57;4.63;;;;;;;20.03;100.00;98648.38;5053786;28;20228;-73
2023/09/14 10:40:38;;;;;;;5.20;4.50;;;;;;;20.04;100.00;98650.03;5053874;28;20212;-73
2023/09/14 10:43:07;;;;;;;7.23;5.20;;;;;;;19.98;100.00;98645.66;5053120;28;20237;-73
2023/09/14 10:45:40;;;;;;;6.30;4.63;;;;;;;19.88;100.00;98642.09;5052770;28;20568;-73
2023/09/14 10:48:11;;;;;;;6.30;4.50;;;;;;;19.89;100.00;98641.06;5053188;28;20232;-73
2023/09/14 10:50:38;;;;;;;7.60;4.20;;;;;;;20.16;100.00;98641.72;5036121;28;20280;-73
2023/09/14 10:53:05;;;;;;;5.03;4.53;;;;;;;20.20;100.00;98631.97;5053031;28;20205;-73
2023/09/14 10:55:35;;;;;;;4.83;4.43;;;;;;;19.99;100.00;98635.69;5052491;28;20700;-73
2023/09/14 10:58:02;;;;;;;4.60;4.20;;;;;;;20.17;100.00;98632.53;5053078;28;20237;-73
2023/09/14 11:00:36;;;;;;;4.10;3.80;;;;;;;20.32;100.00;98629.88;5053478;28;20232;-73
2023/09/14 11:03:03;;;;;;;4.80;4.40;;;;;;;19.99;100.00;98631.09;5053012;28;20193;-73
2023/09/14 11:05:44;;;;;;;5.30;4.60;;;;;;;20.28;100.00;98629.59;5052888;28;20205;-73
2023/09/14 11:08:11;;;;;;;5.50;4.63;;;;;;;20.25;100.00;98623.94;5052493;28;20433;-73
2023/09/14 11:10:38;;;;;;;6.37;4.17;;;;;;;20.14;100.00;98616.88;5053558;28;20209;-73
2023/09/14 11:13:19;;;;;;;5.60;4.83;;;;;;;20.22;100.00;98621.75;5053020;28;20217;-73
2023/09/14 11:15:47;;;;;;;4.77;4.07;;;;;;;20.31;100.00;98617.44;5053250;28;20215;-73
2023/09/14 11:18:20;;;;;;;5.67;4.50;;;;;;;20.69;100.00;98616.94;5053960;28;20233;-73
2023/09/14 11:20:47;;;;;;;5.77;4.30;;;;;;;20.58;100.00;98610.72;5056995;28;20205;-73
2023/09/14 11:23:14;;;;;;;6.53;4.20;;;;;;;20.32;100.00;98603.69;5056467;28;20209;-73
2023/09/14 11:25:41;;;;;;;5.40;4.43;;;;;;;20.61;100.00;98609.38;5056776;28;20205;-73